Iona Mcallister — WDD4840 — position and weather

sailwx.info

Track history (hours):
 
Tides and Currents Weather Stations Pressure Air Temp Water Temp Dewpoint Dewpoint Depression Visibility Wind Speed Wind Dir Waves Ship Positions

Iona Mcallister

Owner: McAllister Towing & Transportation Co. Inc., Staten Island, NY. More information available from US FCC via Universal Licensing System and Coast Guard Vessel Documentation Center.

Last reported at 2016-May-29 21:08 UTC. Time now 2016-May-29 23:02 UTC.
Position N 41°37' W 071°24'.

Length 36 m; draft 3 m.

Type: Towing. MMSI: 367149890.

Date/timePositionNaut miles runAvg speedWind from/ knotsBaromVisibWave heightAir tempDewpointWater temp
2016-May-29 21:08N 41°37' W 071°24'0 0.7
2016-May-29 20:33N 41°36' W 071°24'9 8.3
2016-May-29 19:31N 41°45' W 071°22'4 4.6
2016-May-29 18:33N 41°49' W 071°24'0 0.0
2016-May-29 17:33N 41°49' W 071°24'0 0.0
2016-May-29 16:33N 41°49' W 071°24'0 0.0
2016-May-29 15:33N 41°49' W 071°24'0 0.0
2016-May-29 14:33N 41°49' W 071°24'2 1.2
2016-May-29 13:13N 41°48' W 071°23'0 0.3
2016-May-29 12:29N 41°47' W 071°23'0 0.1
2016-May-29 11:25N 41°47' W 071°23'0 0.0
2016-May-29 10:33N 41°47' W 071°23'0 0.2
2016-May-29 09:30N 41°47' W 071°23'1 0.3
2016-May-29 05:33N 41°48' W 071°24'0 0.1
2016-May-29 03:33N 41°48' W 071°24'1 0.7
2016-May-29 02:22N 41°49' W 071°24'0 0.0
2016-May-29 01:33N 41°49' W 071°24'0 0.0
2016-May-29 00:33N 41°49' W 071°24'0 0.0
2016-May-28 23:15N 41°49' W 071°24'0 0.0
2016-May-28 22:23N 41°49' W 071°24'0 0.0
2016-May-28 21:32N 41°49' W 071°24'0 0.0
2016-May-28 20:20N 41°49' W 071°24'0 0.0
2016-May-28 18:33N 41°49' W 071°24'0 0.0
2016-May-28 17:33N 41°49' W 071°24'0 0.0
2016-May-28 16:27N 41°49' W 071°24'1 0.9
2016-May-28 15:33N 41°48' W 071°24'1 0.8
2016-May-28 14:33N 41°49' W 071°24'0 0.0
2016-May-28 13:29N 41°49' W 071°24'0 0.0
2016-May-28 12:33N 41°49' W 071°24'0 0.0
2016-May-28 11:32N 41°49' W 071°24'0 0.0
2016-May-28 10:33N 41°49' W 071°24'0 0.0
2016-May-28 09:33N 41°49' W 071°24'0 0.0
2016-May-28 08:33N 41°49' W 071°24'0 0.0
2016-May-28 07:33N 41°49' W 071°24'0 0.0
2016-May-28 06:33N 41°49' W 071°24'0 0.0
2016-May-28 05:17N 41°49' W 071°24'0 0.0
2016-May-28 04:33N 41°49' W 071°24'0 0.0
2016-May-28 03:33N 41°49' W 071°24'0 0.0
2016-May-28 02:33N 41°49' W 071°24'0 0.0
2016-May-28 01:33N 41°49' W 071°24'0 0.0
2016-May-28 00:32N 41°49' W 071°24'0 0.0
2016-May-27 22:25N 41°49' W 071°24'0 0.0
2016-May-27 21:32N 41°49' W 071°24'0 0.0
2016-May-27 20:31N 41°49' W 071°24'0 0.0
2016-May-27 19:33N 41°49' W 071°24'2 2.4
2016-May-27 18:33N 41°47' W 071°22'1 0.5
2016-May-27 17:09N 41°47' W 071°23'0 0.1
2016-May-27 15:32N 41°47' W 071°23'0 0.1
2016-May-27 14:33N 41°47' W 071°23'0 0.5
2016-May-27 13:33N 41°47' W 071°22'2 2.3
2016-May-27 12:33N 41°49' W 071°24'0 0.0
2016-May-27 11:32N 41°49' W 071°24'0 0.0
2016-May-27 10:33N 41°49' W 071°24'1 1.1
2016-May-27 09:21N 41°48' W 071°23'0 0.0
2016-May-27 01:24N 41°48' W 071°23'1 0.9
2016-May-27 00:31N 41°48' W 071°24'1 0.7
2016-May-26 23:33N 41°49' W 071°24'0 0.0
2016-May-26 22:33N 41°49' W 071°24'2 1.6
2016-May-26 21:16N 41°47' W 071°23'6 8.6
2016-May-26 20:32N 41°41' W 071°21'5 0.5
2016-May-26 10:18N 41°36' W 071°24'3 3.6
2016-May-26 09:32N 41°39' W 071°22'8 7.9
2016-May-26 08:33N 41°47' W 071°22'2 0.1
2016-May-25 04:33N 41°49' W 071°24'0 0.0
2016-May-25 03:34N 41°49' W 071°24'0 0.0
2016-May-25 02:33N 41°49' W 071°24'0 0.0
2016-May-25 01:33N 41°49' W 071°24'0 0.0
2016-May-25 00:33N 41°49' W 071°24'0 0.0
2016-May-24 23:33N 41°49' W 071°24'0 0.0
2016-May-24 22:33N 41°49' W 071°24'0 0.0
2016-May-24 21:33N 41°49' W 071°24'0 0.0
2016-May-24 20:34N 41°49' W 071°24'0 0.0
2016-May-24 19:33N 41°49' W 071°24'0 0.0
2016-May-24 18:34N 41°49' W 071°24'0 0.0
2016-May-24 17:33N 41°49' W 071°24'0 0.0
2016-May-24 16:33N 41°49' W 071°24'0 0.0
2016-May-24 15:33N 41°49' W 071°24'0 0.0
2016-May-24 14:32N 41°49' W 071°24'0 0.0
2016-May-24 13:34N 41°49' W 071°24'0 0.0
2016-May-24 12:33N 41°49' W 071°24'0 0.0
2016-May-24 11:33N 41°49' W 071°24'0 0.0
2016-May-24 10:33N 41°49' W 071°24'0 0.0
2016-May-24 09:33N 41°49' W 071°24'0 0.0
2016-May-24 08:33N 41°49' W 071°24'0 0.0
2016-May-24 07:33N 41°49' W 071°24'0 0.0
2016-May-24 06:33N 41°49' W 071°24'0 0.0
2016-May-24 05:34N 41°49' W 071°24'0 0.0
2016-May-24 04:33N 41°49' W 071°24'1 0.7
2016-May-24 03:33N 41°48' W 071°24'1 0.7
2016-May-24 02:33N 41°49' W 071°24'0 0.0
2016-May-24 01:33N 41°49' W 071°24'0 0.0
2016-May-24 00:33N 41°49' W 071°24'0 0.0
2016-May-23 23:33N 41°49' W 071°24'6 5.9
2016-May-23 22:32N 41°43' W 071°21'7 7.1
2016-May-23 21:33N 41°37' W 071°24'0 0.0
2016-May-23 16:15N 41°37' W 071°24'0 0.0
2016-May-23 13:13N 41°37' W 071°24'1 0.2
2016-May-23 10:34N 41°36' W 071°24'1 0.5
2016-May-23 09:31N 41°36' W 071°24'1 0.9
2016-May-23 08:33N 41°35' W 071°24'0 0.0
2016-May-23 07:34N 41°35' W 071°24'0 0.0
2016-May-23 06:33N 41°35' W 071°24'6 6.3
2016-May-23 05:34N 41°41' W 071°21'8 7.1
2016-May-23 04:29N 41°48' W 071°24'1 0.8
2016-May-23 03:32N 41°49' W 071°24'0 0.0
2016-May-23 02:33N 41°49' W 071°24'0 0.0
2016-May-23 01:33N 41°49' W 071°24'0 0.0
2016-May-23 00:33N 41°49' W 071°24'0 0.0
2016-May-22 23:33N 41°49' W 071°24'0 0.0
2016-May-22 21:33N 41°49' W 071°24'0 0.0
2016-May-22 18:32N 41°49' W 071°24'0 0.0
2016-May-22 17:30N 41°49' W 071°24'0 0.0
2016-May-22 16:33N 41°49' W 071°24'0 0.0
2016-May-22 15:32N 41°49' W 071°24'0 0.0
2016-May-22 14:33N 41°49' W 071°24'0 0.0
2016-May-22 13:33N 41°49' W 071°24'0 0.0
2016-May-22 12:33N 41°49' W 071°24'1 0.7
2016-May-22 11:33N 41°48' W 071°24'1 0.7
2016-May-22 10:32N 41°49' W 071°24'0 0.0
2016-May-22 09:33N 41°49' W 071°24'0 0.0
2016-May-22 08:33N 41°49' W 071°24'0 0.0
2016-May-22 05:23N 41°49' W 071°24'0 0.0
2016-May-22 04:33N 41°49' W 071°24'0 0.0
2016-May-22 03:27N 41°49' W 071°24'0 0.0
2016-May-22 02:33N 41°49' W 071°24'0 0.0
2016-May-22 01:33N 41°49' W 071°24'2 2.1
2016-May-22 00:34N 41°47' W 071°23'7 7.2
2016-May-21 23:33N 41°40' W 071°22'4 3.4
2016-May-21 22:31N 41°37' W 071°24'0 0.0
2016-May-21 21:33N 41°37' W 071°24'0 0.0
2016-May-21 20:33N 41°37' W 071°24'0 0.0
2016-May-21 19:34N 41°37' W 071°24'0 0.1
2016-May-21 18:12N 41°37' W 071°24'0 0.0
2016-May-21 17:27N 41°37' W 071°24'0 0.1
2016-May-21 16:33N 41°37' W 071°24'0 0.0
2016-May-21 12:27N 41°37' W 071°24'0 0.0
2016-May-21 11:28N 41°37' W 071°24'1 0.8
2016-May-21 10:33N 41°36' W 071°24'0 0.1
2016-May-21 09:34N 41°36' W 071°24'1 1.1
2016-May-21 08:33N 41°35' W 071°24'0 0.0
2016-May-21 07:34N 41°35' W 071°24'0 0.0
2016-May-21 06:34N 41°35' W 071°24'0 0.0
2016-May-21 05:33N 41°35' W 071°24'0 0.0
2016-May-21 04:33N 41°35' W 071°24'0 0.0
2016-May-21 03:33N 41°35' W 071°24'0 0.0
2016-May-21 02:34N 41°35' W 071°24'6 6.0
2016-May-21 01:33N 41°41' W 071°21'7 7.1
2016-May-21 00:34N 41°48' W 071°23'2 1.6
2016-May-20 23:33N 41°49' W 071°24'0 0.0
2016-May-20 22:32N 41°49' W 071°24'0 0.0
2016-May-20 21:32N 41°49' W 071°24'0 0.0
2016-May-20 19:32N 41°49' W 071°24'0 0.0
2016-May-20 18:33N 41°49' W 071°24'0 0.0
2016-May-20 17:33N 41°49' W 071°24'0 0.0
2016-May-20 16:33N 41°49' W 071°24'0 0.0
2016-May-20 15:33N 41°49' W 071°24'0 0.0
2016-May-20 14:33N 41°49' W 071°24'0 0.0
2016-May-20 13:34N 41°49' W 071°24'0 0.0
2016-May-20 12:33N 41°49' W 071°24'0 0.0
2016-May-20 11:33N 41°49' W 071°24'0 0.0
2016-May-20 10:33N 41°49' W 071°24'0 0.0
2016-May-20 09:34N 41°49' W 071°24'0 0.0
2016-May-20 08:33N 41°49' W 071°24'0 0.0
2016-May-20 07:33N 41°49' W 071°24'0 0.0
2016-May-20 06:33N 41°49' W 071°24'0 0.0
2016-May-20 05:33N 41°49' W 071°24'0 0.0
2016-May-20 04:33N 41°49' W 071°24'0 0.0
2016-May-20 03:34N 41°49' W 071°24'0 0.0
2016-May-20 02:33N 41°49' W 071°24'0 0.0
2016-May-20 01:33N 41°49' W 071°24'0 0.0
2016-May-20 00:32N 41°49' W 071°24'0 0.0
2016-May-19 23:32N 41°49' W 071°24'0 0.0
2016-May-19 22:33N 41°49' W 071°24'0 0.0
2016-May-19 21:33N 41°49' W 071°24'  
Track history (hours):
 
Tides and Currents Weather Stations Pressure Air Temp Water Temp Dewpoint Dewpoint Depression Visibility Wind Speed Wind Dir Waves Ship Positions

Iona Mcallister

Owner: McAllister Towing & Transportation Co. Inc., Staten Island, NY. More information available from US FCC via Universal Licensing System and Coast Guard Vessel Documentation Center.

Last reported at 2016-May-29 21:08 UTC. Time now 2016-May-29 23:02 UTC.
Position N 41°37' W 071°24'.

Length 36 m; draft 3 m.

Type: Towing. MMSI: 367149890.

Date/timePositionNaut miles runAvg speedWind from/ knotsBaromVisibWave heightAir tempDewpointWater temp
2016-May-29 21:08N 41°37' W 071°24'0 0.7
2016-May-29 20:33N 41°36' W 071°24'9 8.3
2016-May-29 19:31N 41°45' W 071°22'4 4.6
2016-May-29 18:33N 41°49' W 071°24'0 0.0
2016-May-29 17:33N 41°49' W 071°24'0 0.0
2016-May-29 16:33N 41°49' W 071°24'0 0.0
2016-May-29 15:33N 41°49' W 071°24'0 0.0
2016-May-29 14:33N 41°49' W 071°24'2 1.2
2016-May-29 13:13N 41°48' W 071°23'0 0.3
2016-May-29 12:29N 41°47' W 071°23'0 0.1
2016-May-29 11:25N 41°47' W 071°23'0 0.0
2016-May-29 10:33N 41°47' W 071°23'0 0.2
2016-May-29 09:30N 41°47' W 071°23'1 0.3
2016-May-29 05:33N 41°48' W 071°24'0 0.1
2016-May-29 03:33N 41°48' W 071°24'1 0.7
2016-May-29 02:22N 41°49' W 071°24'0 0.0
2016-May-29 01:33N 41°49' W 071°24'0 0.0
2016-May-29 00:33N 41°49' W 071°24'0 0.0
2016-May-28 23:15N 41°49' W 071°24'0 0.0
2016-May-28 22:23N 41°49' W 071°24'0 0.0
2016-May-28 21:32N 41°49' W 071°24'0 0.0
2016-May-28 20:20N 41°49' W 071°24'0 0.0
2016-May-28 18:33N 41°49' W 071°24'0 0.0
2016-May-28 17:33N 41°49' W 071°24'0 0.0
2016-May-28 16:27N 41°49' W 071°24'1 0.9
2016-May-28 15:33N 41°48' W 071°24'1 0.8
2016-May-28 14:33N 41°49' W 071°24'0 0.0
2016-May-28 13:29N 41°49' W 071°24'0 0.0
2016-May-28 12:33N 41°49' W 071°24'0 0.0
2016-May-28 11:32N 41°49' W 071°24'0 0.0
2016-May-28 10:33N 41°49' W 071°24'0 0.0
2016-May-28 09:33N 41°49' W 071°24'0 0.0
2016-May-28 08:33N 41°49' W 071°24'0 0.0
2016-May-28 07:33N 41°49' W 071°24'0 0.0
2016-May-28 06:33N 41°49' W 071°24'0 0.0
2016-May-28 05:17N 41°49' W 071°24'0 0.0
2016-May-28 04:33N 41°49' W 071°24'0 0.0
2016-May-28 03:33N 41°49' W 071°24'0 0.0
2016-May-28 02:33N 41°49' W 071°24'0 0.0
2016-May-28 01:33N 41°49' W 071°24'0 0.0
2016-May-28 00:32N 41°49' W 071°24'0 0.0
2016-May-27 22:25N 41°49' W 071°24'0 0.0
2016-May-27 21:32N 41°49' W 071°24'0 0.0
2016-May-27 20:31N 41°49' W 071°24'0 0.0
2016-May-27 19:33N 41°49' W 071°24'2 2.4
2016-May-27 18:33N 41°47' W 071°22'1 0.5
2016-May-27 17:09N 41°47' W 071°23'0 0.1
2016-May-27 15:32N 41°47' W 071°23'0 0.1
2016-May-27 14:33N 41°47' W 071°23'0 0.5
2016-May-27 13:33N 41°47' W 071°22'2 2.3
2016-May-27 12:33N 41°49' W 071°24'0 0.0
2016-May-27 11:32N 41°49' W 071°24'0 0.0
2016-May-27 10:33N 41°49' W 071°24'1 1.1
2016-May-27 09:21N 41°48' W 071°23'0 0.0
2016-May-27 01:24N 41°48' W 071°23'1 0.9
2016-May-27 00:31N 41°48' W 071°24'1 0.7
2016-May-26 23:33N 41°49' W 071°24'0 0.0
2016-May-26 22:33N 41°49' W 071°24'2 1.6
2016-May-26 21:16N 41°47' W 071°23'6 8.6
2016-May-26 20:32N 41°41' W 071°21'5 0.5
2016-May-26 10:18N 41°36' W 071°24'3 3.6
2016-May-26 09:32N 41°39' W 071°22'8 7.9
2016-May-26 08:33N 41°47' W 071°22'2 0.1
2016-May-25 04:33N 41°49' W 071°24'0 0.0
2016-May-25 03:34N 41°49' W 071°24'0 0.0
2016-May-25 02:33N 41°49' W 071°24'0 0.0
2016-May-25 01:33N 41°49' W 071°24'0 0.0
2016-May-25 00:33N 41°49' W 071°24'0 0.0
2016-May-24 23:33N 41°49' W 071°24'0 0.0
2016-May-24 22:33N 41°49' W 071°24'0 0.0
2016-May-24 21:33N 41°49' W 071°24'0 0.0
2016-May-24 20:34N 41°49' W 071°24'0 0.0
2016-May-24 19:33N 41°49' W 071°24'0 0.0
2016-May-24 18:34N 41°49' W 071°24'0 0.0
2016-May-24 17:33N 41°49' W 071°24'0 0.0
2016-May-24 16:33N 41°49' W 071°24'0 0.0
2016-May-24 15:33N 41°49' W 071°24'0 0.0
2016-May-24 14:32N 41°49' W 071°24'0 0.0
2016-May-24 13:34N 41°49' W 071°24'0 0.0
2016-May-24 12:33N 41°49' W 071°24'0 0.0
2016-May-24 11:33N 41°49' W 071°24'0 0.0
2016-May-24 10:33N 41°49' W 071°24'0 0.0
2016-May-24 09:33N 41°49' W 071°24'0 0.0
2016-May-24 08:33N 41°49' W 071°24'0 0.0
2016-May-24 07:33N 41°49' W 071°24'0 0.0
2016-May-24 06:33N 41°49' W 071°24'0 0.0
2016-May-24 05:34N 41°49' W 071°24'0 0.0
2016-May-24 04:33N 41°49' W 071°24'1 0.7
2016-May-24 03:33N 41°48' W 071°24'1 0.7
2016-May-24 02:33N 41°49' W 071°24'0 0.0
2016-May-24 01:33N 41°49' W 071°24'0 0.0
2016-May-24 00:33N 41°49' W 071°24'0 0.0
2016-May-23 23:33N 41°49' W 071°24'6 5.9
2016-May-23 22:32N 41°43' W 071°21'7 7.1
2016-May-23 21:33N 41°37' W 071°24'0 0.0
2016-May-23 16:15N 41°37' W 071°24'0 0.0
2016-May-23 13:13N 41°37' W 071°24'1 0.2
2016-May-23 10:34N 41°36' W 071°24'1 0.5
2016-May-23 09:31N 41°36' W 071°24'1 0.9
2016-May-23 08:33N 41°35' W 071°24'0 0.0
2016-May-23 07:34N 41°35' W 071°24'0 0.0
2016-May-23 06:33N 41°35' W 071°24'6 6.3
2016-May-23 05:34N 41°41' W 071°21'8 7.1
2016-May-23 04:29N 41°48' W 071°24'1 0.8
2016-May-23 03:32N 41°49' W 071°24'0 0.0
2016-May-23 02:33N 41°49' W 071°24'0 0.0
2016-May-23 01:33N 41°49' W 071°24'0 0.0
2016-May-23 00:33N 41°49' W 071°24'0 0.0
2016-May-22 23:33N 41°49' W 071°24'0 0.0
2016-May-22 21:33N 41°49' W 071°24'0 0.0
2016-May-22 18:32N 41°49' W 071°24'0 0.0
2016-May-22 17:30N 41°49' W 071°24'0 0.0
2016-May-22 16:33N 41°49' W 071°24'0 0.0
2016-May-22 15:32N 41°49' W 071°24'0 0.0
2016-May-22 14:33N 41°49' W 071°24'0 0.0
2016-May-22 13:33N 41°49' W 071°24'0 0.0
2016-May-22 12:33N 41°49' W 071°24'1 0.7
2016-May-22 11:33N 41°48' W 071°24'1 0.7
2016-May-22 10:32N 41°49' W 071°24'0 0.0
2016-May-22 09:33N 41°49' W 071°24'0 0.0
2016-May-22 08:33N 41°49' W 071°24'0 0.0
2016-May-22 05:23N 41°49' W 071°24'0 0.0
2016-May-22 04:33N 41°49' W 071°24'0 0.0
2016-May-22 03:27N 41°49' W 071°24'0 0.0
2016-May-22 02:33N 41°49' W 071°24'0 0.0
2016-May-22 01:33N 41°49' W 071°24'2 2.1
2016-May-22 00:34N 41°47' W 071°23'7 7.2
2016-May-21 23:33N 41°40' W 071°22'4 3.4
2016-May-21 22:31N 41°37' W 071°24'0 0.0
2016-May-21 21:33N 41°37' W 071°24'0 0.0
2016-May-21 20:33N 41°37' W 071°24'0 0.0
2016-May-21 19:34N 41°37' W 071°24'0 0.1
2016-May-21 18:12N 41°37' W 071°24'0 0.0
2016-May-21 17:27N 41°37' W 071°24'0 0.1
2016-May-21 16:33N 41°37' W 071°24'0 0.0
2016-May-21 12:27N 41°37' W 071°24'0 0.0
2016-May-21 11:28N 41°37' W 071°24'1 0.8
2016-May-21 10:33N 41°36' W 071°24'0 0.1
2016-May-21 09:34N 41°36' W 071°24'1 1.1
2016-May-21 08:33N 41°35' W 071°24'0 0.0
2016-May-21 07:34N 41°35' W 071°24'0 0.0
2016-May-21 06:34N 41°35' W 071°24'0 0.0
2016-May-21 05:33N 41°35' W 071°24'0 0.0
2016-May-21 04:33N 41°35' W 071°24'0 0.0
2016-May-21 03:33N 41°35' W 071°24'0 0.0
2016-May-21 02:34N 41°35' W 071°24'6 6.0
2016-May-21 01:33N 41°41' W 071°21'7 7.1
2016-May-21 00:34N 41°48' W 071°23'2 1.6
2016-May-20 23:33N 41°49' W 071°24'0 0.0
2016-May-20 22:32N 41°49' W 071°24'0 0.0
2016-May-20 21:32N 41°49' W 071°24'0 0.0
2016-May-20 19:32N 41°49' W 071°24'0 0.0
2016-May-20 18:33N 41°49' W 071°24'0 0.0
2016-May-20 17:33N 41°49' W 071°24'0 0.0
2016-May-20 16:33N 41°49' W 071°24'0 0.0
2016-May-20 15:33N 41°49' W 071°24'0 0.0
2016-May-20 14:33N 41°49' W 071°24'0 0.0
2016-May-20 13:34N 41°49' W 071°24'0 0.0
2016-May-20 12:33N 41°49' W 071°24'0 0.0
2016-May-20 11:33N 41°49' W 071°24'0 0.0
2016-May-20 10:33N 41°49' W 071°24'0 0.0
2016-May-20 09:34N 41°49' W 071°24'0 0.0
2016-May-20 08:33N 41°49' W 071°24'0 0.0
2016-May-20 07:33N 41°49' W 071°24'0 0.0
2016-May-20 06:33N 41°49' W 071°24'0 0.0
2016-May-20 05:33N 41°49' W 071°24'0 0.0
2016-May-20 04:33N 41°49' W 071°24'0 0.0
2016-May-20 03:34N 41°49' W 071°24'0 0.0
2016-May-20 02:33N 41°49' W 071°24'0 0.0
2016-May-20 01:33N 41°49' W 071°24'0 0.0
2016-May-20 00:32N 41°49' W 071°24'0 0.0
2016-May-19 23:32N 41°49' W 071°24'0 0.0
2016-May-19 22:33N 41°49' W 071°24'0 0.0
2016-May-19 21:33N 41°49' W 071°24'  

Dump ship's entire track history